Time;durP1;ratioP1;P1;durP2;ratioP2;P2;SDS_P1;SDS_P2;PMS_P1;PMS_P2;Temp;Humidity;BMP_temperature;BMP_pressure;BME280_temperature;BME280_humidity;BME280_pressure;Samples;Min_cycle;Max_cycle;Signal;HPM_P1;HPM_P2
2022/11/04 00:00:47;;;;;;;21.77;16.70;;;11.90;99.90;;;;;;5052720;28;20056;-84
2022/11/04 00:03:13;;;;;;;20.95;16.50;;;11.80;99.90;;;;;;5042652;28;20060;-84
2022/11/04 00:05:38;;;;;;;20.45;16.67;;;11.80;99.90;;;;;;5033916;28;20033;-84
2022/11/04 00:08:22;;;;;;;21.45;15.48;;;11.80;99.90;;;;;;5042158;28;20493;-84
2022/11/04 00:13:37;;;;;;;20.45;15.82;;;12.70;99.90;;;;;;5034831;28;20080;-84
2022/11/04 00:18:48;;;;;;;19.02;15.10;;;11.90;99.90;;;;;;5035261;28;20093;-84
2022/11/04 00:29:26;;;;;;;20.45;14.98;;;12.30;99.90;;;;;;5034943;28;20049;-84
2022/11/04 00:34:36;;;;;;;16.70;13.88;;;12.90;99.90;;;;;;5032981;28;20053;-84
2022/11/04 00:37:02;;;;;;;16.75;10.75;;;12.20;99.90;;;;;;5034348;28;20072;-84
2022/11/04 00:39:28;;;;;;;14.15;11.77;;;12.10;99.90;;;;;;5026800;28;20045;-84
2022/11/04 00:41:53;;;;;;;13.57;10.98;;;12.00;99.90;;;;;;5032186;28;20053;-84
2022/11/04 00:44:19;;;;;;;13.35;9.63;;;12.60;99.90;;;;;;5032193;28;20120;-84
2022/11/04 00:46:45;;;;;;;8.82;6.68;;;11.90;99.90;;;;;;5049605;28;20462;-84
2022/11/04 00:49:11;;;;;;;7.00;5.82;;;12.70;99.90;;;;;;5051123;28;20067;-84
2022/11/04 00:51:37;;;;;;;8.55;6.22;;;12.00;99.90;;;;;;5051660;28;20053;-84
2022/11/04 00:54:03;;;;;;;5.97;4.10;;;11.90;99.90;;;;;;5052488;28;20037;-85
2022/11/04 00:56:29;;;;;;;5.43;3.75;;;12.00;99.90;;;;;;5053511;28;20040;-84
2022/11/04 00:58:54;;;;;;;5.05;3.30;;;12.60;99.90;;;;;;5049904;28;20435;-84
2022/11/04 01:01:20;;;;;;;4.13;2.53;;;11.90;99.90;;;;;;5051267;28;20052;-84
2022/11/04 01:03:47;;;;;;;2.72;1.70;;;11.80;99.90;;;;;;5042490;28;20052;-84
2022/11/04 01:06:13;;;;;;;3.80;1.80;;;11.80;99.90;;;;;;5030257;28;20363;-84
2022/11/04 01:08:39;;;;;;;3.13;1.77;;;12.80;99.90;;;;;;5031659;28;20053;-83
2022/11/04 01:11:07;;;;;;;3.58;1.60;;;12.30;99.90;;;;;;5033918;28;20041;-85
2022/11/04 01:13:33;;;;;;;3.28;1.50;;;12.50;99.90;;;;;;5044690;28;20041;-84
2022/11/04 01:16:00;;;;;;;4.35;1.70;;;11.60;99.90;;;;;;5051395;28;20052;-84
2022/11/04 01:18:26;;;;;;;2.58;1.33;;;11.60;99.90;;;;;;5052666;28;20053;-84
2022/11/04 01:20:52;;;;;;;2.72;1.42;;;11.50;99.90;;;;;;5051624;28;20370;-84
2022/11/04 01:23:17;;;;;;;2.67;1.30;;;11.50;99.90;;;;;;5051029;28;20041;-84
2022/11/04 01:25:43;;;;;;;5.40;1.50;;;11.40;99.90;;;;;;5050755;28;20045;-84
2022/11/04 01:28:09;;;;;;;3.40;1.20;;;11.50;99.90;;;;;;5051140;28;20134;-84
2022/11/04 01:30:37;;;;;;;3.38;1.33;;;11.50;99.90;;;;;;5046258;28;20112;-84
2022/11/04 01:33:03;;;;;;;3.40;1.20;;;11.40;99.90;;;;;;5032284;28;20037;-84
2022/11/04 01:35:30;;;;;;;3.33;1.20;;;11.40;99.90;;;;;;5033059;28;20494;-85
2022/11/04 01:37:57;;;;;;;2.35;1.25;;;11.40;99.90;;;;;;5043776;28;20045;-84
2022/11/04 01:40:23;;;;;;;1.88;1.10;;;11.40;99.90;;;;;;5051947;28;20041;-84
2022/11/04 01:42:48;;;;;;;3.38;1.15;;;11.30;99.90;;;;;;5019132;28;20049;-84
2022/11/04 01:45:17;;;;;;;1.48;1.10;;;11.30;99.90;;;;;;5032712;28;20482;-84
2022/11/04 01:48:03;;;;;;;2.25;1.27;;;11.30;99.90;;;;;;5041026;28;20044;-84
2022/11/04 01:50:30;;;;;;;2.20;1.13;;;11.30;99.90;;;;;;5051142;28;20045;-84
2022/11/04 01:53:06;;;;;;;2.75;1.20;;;11.30;99.90;;;;;;5050572;28;20041;-84
2022/11/04 01:55:34;;;;;;;;;;;11.30;99.90;;;;;;5052926;28;20406;-85
2022/11/04 01:58:12;;;;;;;4.40;1.20;;;11.30;99.90;;;;;;5052471;28;19920;-84
2022/11/04 02:00:39;;;;;;;8.23;1.80;;;11.30;99.90;;;;;;5037300;28;20042;-84
2022/11/04 02:03:07;;;;;;;2.83;1.10;;;12.70;99.90;;;;;;5018501;28;20045;-84
2022/11/04 02:05:33;;;;;;;3.65;1.10;;;11.30;99.90;;;;;;5036500;28;20046;-85
2022/11/04 02:08:01;;;;;;;1.58;0.90;;;11.30;99.90;;;;;;5018717;28;20057;-84
2022/11/04 02:10:29;;;;;;;2.47;1.08;;;12.00;99.90;;;;;;5036657;28;20041;-84
2022/11/04 02:12:58;;;;;;;2.65;1.20;;;11.30;99.90;;;;;;5036496;28;20045;-84
2022/11/04 02:15:36;;;;;;;3.95;1.13;;;11.30;99.90;;;;;;5019726;28;20132;-84
2022/11/04 02:18:10;;;;;;;5.75;1.20;;;11.50;99.90;;;;;;5055831;28;20135;-84
2022/11/04 02:21:04;;;;;;;5.20;1.20;;;11.20;99.90;;;;;;5018674;28;20057;-84
2022/11/04 02:23:54;;;;;;;2.83;1.30;;;11.20;99.90;;;;;;5021148;28;20454;-85
2022/11/04 02:26:52;;;;;;;6.15;1.40;;;11.20;99.90;;;;;;5039062;28;20072;-85
2022/11/04 02:29:37;;;;;;;12.00;1.58;;;11.20;99.90;;;;;;5029756;28;20079;-84
2022/11/04 02:32:41;;;;;;;6.85;1.38;;;11.60;99.90;;;;;;5024651;28;20067;-84
2022/11/04 02:35:26;;;;;;;6.22;1.55;;;11.30;99.90;;;;;;5032990;28;20461;-84
2022/11/04 02:37:58;;;;;;;6.57;1.40;;;11.20;99.90;;;;;;5038382;28;20050;-84
2022/11/04 02:40:33;;;;;;;5.63;1.40;;;11.50;99.90;;;;;;5055869;28;20102;-84
2022/11/04 02:43:07;;;;;;;6.05;1.17;;;11.30;99.90;;;;;;5055559;28;20045;-84
2022/11/04 02:45:42;;;;;;;6.90;1.38;;;11.20;99.90;;;;;;5036133;28;20054;-84
2022/11/04 02:48:23;;;;;;;8.02;1.48;;;11.20;99.90;;;;;;5003044;28;20414;-84
2022/11/04 02:51:08;;;;;;;7.07;1.45;;;11.20;99.90;;;;;;5019143;28;20085;-85
2022/11/04 02:53:43;;;;;;;8.00;1.50;;;11.10;99.90;;;;;;5020687;28;20057;-86
2022/11/04 02:56:10;;;;;;;6.15;1.40;;;11.80;99.90;;;;;;5018964;28;20045;-85
2022/11/04 02:58:42;;;;;;;7.65;1.35;;;11.30;99.90;;;;;;5036403;28;20060;-85
2022/11/04 03:01:12;;;;;;;7.70;1.50;;;11.10;99.90;;;;;;5054171;28;20375;-86
2022/11/04 03:03:42;;;;;;;7.72;1.40;;;11.10;99.90;;;;;;5050417;28;20452;-85
2022/11/04 03:06:10;;;;;;;11.18;1.75;;;11.10;99.90;;;;;;5056491;28;20045;-85
2022/11/04 03:08:42;;;;;;;6.88;1.63;;;11.50;99.90;;;;;;5059248;28;20048;-85
2022/11/04 03:11:14;;;;;;;5.47;1.30;;;12.10;99.90;;;;;;5038718;28;20044;-85
2022/11/04 03:13:48;;;;;;;10.70;2.03;;;11.20;99.90;;;;;;5072601;28;20040;-85
2022/11/04 03:16:19;;;;;;;4.93;1.17;;;11.00;99.90;;;;;;5057060;28;20464;-84
2022/11/04 03:19:33;;;;;;;9.73;1.65;;;11.00;99.90;;;;;;5051099;28;20049;-84
2022/11/04 03:22:01;;;;;;;7.93;1.25;;;11.10;99.90;;;;;;5050058;28;20053;-84
2022/11/04 03:24:28;;;;;;;6.50;1.30;;;11.00;99.90;;;;;;5034796;28;20481;-84
2022/11/04 03:27:20;;;;;;;8.68;1.50;;;11.00;99.90;;;;;;5055441;28;20037;-84
2022/11/04 03:30:16;;;;;;;7.55;1.50;;;11.00;99.90;;;;;;5009451;28;20057;-84
2022/11/04 03:33:00;;;;;;;5.47;1.83;;;11.10;99.90;;;;;;5033087;28;20387;-83
2022/11/04 03:35:27;;;;;;;9.57;1.42;;;11.10;99.90;;;;;;5070619;28;20503;-83
2022/11/04 03:37:53;;;;;;;9.48;1.70;;;11.10;99.90;;;;;;5056142;28;20048;-83
2022/11/04 03:40:20;;;;;;;6.63;1.77;;;11.90;99.90;;;;;;5056385;28;20068;-83
2022/11/04 03:42:58;;;;;;;5.43;1.27;;;11.10;99.90;;;;;;5039462;28;20075;-84
2022/11/04 03:45:24;;;;;;;4.63;1.58;;;11.10;99.90;;;;;;5062063;28;20041;-83
2022/11/04 03:47:51;;;;;;;6.22;1.50;;;12.20;99.90;;;;;;5037099;28;20068;-83
2022/11/04 03:50:40;;;;;;;8.32;1.60;;;12.20;99.90;;;;;;5075064;28;20036;-83
2022/11/04 03:53:07;;;;;;;7.25;1.55;;;12.00;99.90;;;;;;5057568;28;20139;-83
2022/11/04 03:55:36;;;;;;;5.93;1.40;;;11.10;99.90;;;;;;5039282;28;20358;-83
2022/11/04 03:58:29;;;;;;;8.63;1.70;;;11.10;99.90;;;;;;5034784;28;20045;-84
2022/11/04 04:01:25;;;;;;;7.32;1.50;;;11.10;99.90;;;;;;5040567;28;20521;-83
2022/11/04 04:04:04;;;;;;;6.60;1.75;;;11.10;99.90;;;;;;5038063;28;20414;-84
2022/11/04 04:06:33;;;;;;;10.05;1.70;;;11.00;99.90;;;;;;5016368;28;20037;-83
2022/11/04 04:09:18;;;;;;;6.18;1.48;;;11.80;99.90;;;;;;5016773;28;20050;-83
2022/11/04 04:11:52;;;;;;;6.35;1.70;;;11.00;99.90;;;;;;5032778;28;20042;-84
2022/11/04 04:14:39;;;;;;;6.82;1.52;;;11.00;99.90;;;;;;5033043;28;20163;-84
2022/11/04 04:17:06;;;;;;;;;;;11.10;99.90;;;;;;5034598;28;20394;-84
2022/11/04 04:19:33;;;;;;;4.80;1.38;;;11.00;99.90;;;;;;5045932;28;19974;-83
2022/11/04 04:22:05;;;;;;;9.18;1.80;;;11.00;99.90;;;;;;5028316;28;20355;-84
2022/11/04 04:27:31;;;;;;;6.80;2.08;;;10.90;99.90;;;;;;5023454;28;20469;-83
2022/11/04 04:30:00;;;;;;;6.43;1.90;;;12.20;99.90;;;;;;5015446;28;20075;-83
2022/11/04 04:32:28;;;;;;;6.80;1.80;;;10.90;99.90;;;;;;5016628;28;20041;-83
2022/11/04 04:35:40;;;;;;;6.10;1.50;;;11.70;99.90;;;;;;5020905;28;20055;-83
2022/11/04 04:37:41;;;;;;;7.68;1.92;;;11.70;99.90;;;;;;5034786;28;20053;-84
2022/11/04 04:45:42;;;;;;;4.18;1.52;;;10.90;99.90;;;;;;5043565;28;20049;-84
2022/11/04 04:48:10;;;;;;;5.00;1.40;;;10.90;99.90;;;;;;5035850;28;20053;-84
2022/11/04 04:50:39;;;;;;;6.90;1.40;;;10.90;99.90;;;;;;5050195;28;20033;-84
2022/11/04 04:53:05;;;;;;;3.55;1.20;;;10.90;99.90;;;;;;5017344;28;20048;-84
2022/11/04 04:55:31;;;;;;;3.50;1.33;;;10.80;99.90;;;;;;5034701;28;20044;-84
2022/11/04 04:57:59;;;;;;;4.50;1.20;;;10.80;99.90;;;;;;5052633;28;20182;-86
2022/11/04 05:00:25;;;;;;;5.60;1.63;;;11.80;99.90;;;;;;5019940;28;20375;-85
2022/11/04 05:02:51;;;;;;;5.88;1.50;;;10.80;99.90;;;;;;5042178;28;20049;-85
2022/11/04 05:05:18;;;;;;;5.47;1.30;;;10.80;99.90;;;;;;5026955;28;20041;-85
2022/11/04 05:07:44;;;;;;;2.38;1.00;;;10.80;99.90;;;;;;5026039;28;20124;-87
2022/11/04 05:10:12;;;;;;;5.35;1.33;;;10.80;99.90;;;;;;5034032;28;20139;-85
2022/11/04 05:15:24;;;;;;;4.37;1.13;;;10.80;99.90;;;;;;5033408;28;20398;-85
2022/11/04 05:17:54;;;;;;;5.00;1.20;;;10.70;99.90;;;;;;5000442;28;20049;-85
2022/11/04 05:20:20;;;;;;;5.10;1.33;;;11.00;99.90;;;;;;5033482;28;20045;-85
2022/11/04 05:22:46;;;;;;;3.15;1.40;;;10.60;99.90;;;;;;5052279;28;20123;-85
2022/11/04 05:25:11;;;;;;;4.15;1.10;;;10.60;99.90;;;;;;5052733;28;20076;-85
2022/11/04 05:27:37;;;;;;;6.20;1.40;;;10.60;99.90;;;;;;5018801;28;20041;-84
2022/11/04 05:30:03;;;;;;;4.72;1.45;;;10.50;99.90;;;;;;5034497;28;20037;-85
2022/11/04 05:32:32;;;;;;;4.32;1.20;;;10.50;99.90;;;;;;5020737;28;20045;-85
2022/11/04 05:34:58;;;;;;;2.75;1.25;;;10.50;99.90;;;;;;5016161;28;20046;-85
2022/11/04 05:37:24;;;;;;;3.30;1.20;;;10.80;99.90;;;;;;5033080;28;20040;-84
2022/11/04 05:39:50;;;;;;;2.92;1.30;;;11.40;99.90;;;;;;5033718;28;20474;-84
2022/11/04 05:42:15;;;;;;;2.85;1.15;;;10.70;99.90;;;;;;5029891;28;20186;-85
2022/11/04 05:44:41;;;;;;;3.65;1.50;;;10.60;99.90;;;;;;5011498;28;20048;-84
2022/11/04 05:47:07;;;;;;;4.03;1.38;;;10.40;99.90;;;;;;5014619;28;20049;-85
2022/11/04 05:49:32;;;;;;;5.45;1.40;;;10.40;99.90;;;;;;5023003;28;20462;-85
2022/11/04 05:51:58;;;;;;;2.45;1.20;;;11.40;99.90;;;;;;5018413;28;20088;-85
2022/11/04 05:54:24;;;;;;;7.03;1.50;;;10.80;99.90;;;;;;5053091;28;20036;-85
2022/11/04 05:56:50;;;;;;;6.10;1.48;;;11.00;99.90;;;;;;5055636;28;20170;-85
2022/11/04 05:59:15;;;;;;;3.42;1.20;;;10.30;99.90;;;;;;5048695;28;20114;-86
2022/11/04 06:01:42;;;;;;;6.78;1.58;;;10.30;99.90;;;;;;5047980;28;20500;-85
2022/11/04 06:04:14;;;;;;;6.15;1.40;;;10.30;99.90;;;;;;5036463;28;20048;-85
2022/11/04 06:06:40;;;;;;;3.67;1.30;;;10.30;99.90;;;;;;5036108;28;20045;-84
2022/11/04 06:09:06;;;;;;;5.30;1.20;;;10.30;99.90;;;;;;5053088;28;20441;-85
2022/11/04 06:11:33;;;;;;;4.60;1.30;;;11.20;99.90;;;;;;5035893;28;20037;-84
2022/11/04 06:13:59;;;;;;;4.43;1.33;;;10.20;99.90;;;;;;5035979;28;20155;-85
2022/11/04 06:16:25;;;;;;;3.80;1.40;;;11.50;99.90;;;;;;5035537;28;20049;-86
2022/11/04 06:18:51;;;;;;;6.13;1.55;;;10.20;99.90;;;;;;5040683;28;20040;-84
2022/11/04 06:21:31;;;;;;;4.97;1.50;;;10.20;99.90;;;;;;5055538;28;20040;-85
2022/11/04 06:23:58;;;;;;;3.53;1.40;;;10.10;99.90;;;;;;5042267;28;20049;-84
2022/11/04 06:26:29;;;;;;;5.25;1.30;;;10.20;99.90;;;;;;5069252;28;20044;-84
2022/11/04 06:28:56;;;;;;;7.07;1.40;;;10.20;99.90;;;;;;5063285;28;20048;-85
2022/11/04 06:31:21;;;;;;;6.88;1.40;;;10.20;99.90;;;;;;5051843;28;20076;-85
2022/11/04 06:33:47;;;;;;;4.85;1.60;;;10.20;99.90;;;;;;5068862;28;20129;-85
2022/11/04 06:36:15;;;;;;;5.35;1.40;;;10.10;99.90;;;;;;5070744;28;20048;-85
2022/11/04 06:38:41;;;;;;;4.63;1.48;;;10.10;99.90;;;;;;5055284;28;20040;-85
2022/11/04 06:41:11;;;;;;;6.90;1.40;;;10.10;99.90;;;;;;5019815;28;20041;-84
2022/11/04 06:43:37;;;;;;;4.38;1.50;;;10.10;99.90;;;;;;5055037;28;20139;-84
2022/11/04 06:46:03;;;;;;;6.55;1.65;;;10.10;99.90;;;;;;5055412;28;20080;-84
2022/11/04 06:48:29;;;;;;;4.65;1.42;;;10.00;99.90;;;;;;5075586;28;20537;-85
2022/11/04 06:50:57;;;;;;;3.80;1.65;;;10.00;99.90;;;;;;5076457;28;20468;-85
2022/11/04 06:53:23;;;;;;;5.10;1.70;;;10.00;99.90;;;;;;5067725;28;20091;-84
2022/11/04 06:55:50;;;;;;;5.70;1.70;;;10.90;99.90;;;;;;5055954;28;20454;-85
2022/11/04 06:58:15;;;;;;;5.22;1.50;;;9.90;99.90;;;;;;5034720;28;20141;-85
2022/11/04 07:00:41;;;;;;;5.68;1.90;;;9.90;99.90;;;;;;5002892;28;20073;-86
2022/11/04 07:03:08;;;;;;;6.20;1.88;;;10.20;99.90;;;;;;5037351;28;20037;-86
2022/11/04 07:05:34;;;;;;;5.60;1.90;;;9.90;99.90;;;;;;5036806;28;20073;-85
2022/11/04 07:08:00;;;;;;;6.20;1.80;;;10.00;99.90;;;;;;5018920;28;20049;-85
2022/11/04 07:10:25;;;;;;;5.50;2.22;;;9.90;99.90;;;;;;5018048;28;20366;-85
2022/11/04 07:12:53;;;;;;;4.50;2.00;;;10.00;99.90;;;;;;5035474;28;20049;-85
2022/11/04 07:15:19;;;;;;;4.43;2.00;;;10.00;99.90;;;;;;5036625;28;20052;-86
2022/11/04 07:17:44;;;;;;;6.35;1.92;;;11.20;99.90;;;;;;5036892;28;20045;-85
2022/11/04 07:20:12;;;;;;;5.85;1.70;;;11.40;99.90;;;;;;5037771;28;20516;-85
2022/11/04 07:22:38;;;;;;;8.75;1.80;;;10.10;99.90;;;;;;5037464;28;20045;-86
2022/11/04 07:25:05;;;;;;;6.38;1.80;;;10.10;99.90;;;;;;5035810;28;20045;-85
2022/11/04 07:27:30;;;;;;;4.20;1.90;;;10.10;99.90;;;;;;5016335;28;20049;-86
2022/11/04 07:29:56;;;;;;;5.00;1.65;;;10.10;99.90;;;;;;5023347;28;20382;-86
2022/11/04 07:32:21;;;;;;;6.28;1.77;;;10.00;99.90;;;;;;5042414;28;20121;-85
2022/11/04 07:34:47;;;;;;;7.60;1.88;;;10.10;99.90;;;;;;5005683;28;20100;-86
2022/11/04 07:37:13;;;;;;;4.53;1.60;;;11.10;99.90;;;;;;5041930;28;20037;-86
2022/11/04 07:39:38;;;;;;;7.10;1.58;;;10.60;99.90;;;;;;5035154;28;20056;-85
2022/11/04 07:42:07;;;;;;;7.47;2.00;;;10.20;99.90;;;;;;5017402;28;20041;-86
2022/11/04 07:44:32;;;;;;;5.65;1.80;;;10.30;99.90;;;;;;5050249;28;20128;-86
2022/11/04 07:46:58;;;;;;;6.63;2.05;;;11.30;99.90;;;;;;5036321;28;20095;-85
2022/11/04 07:49:24;;;;;;;5.38;1.63;;;10.40;99.90;;;;;;5033258;28;20505;-85
2022/11/04 07:51:50;;;;;;;6.60;1.80;;;10.40;99.90;;;;;;5032427;28;20080;-85
2022/11/04 07:54:16;;;;;;;5.30;1.88;;;10.40;99.90;;;;;;5035242;28;20465;-85
2022/11/04 07:56:41;;;;;;;4.47;1.90;;;10.50;99.90;;;;;;5035164;28;20116;-85
2022/11/04 07:59:07;;;;;;;7.60;1.85;;;11.10;99.90;;;;;;5049481;28;20061;-86
2022/11/04 08:01:33;;;;;;;6.35;1.95;;;10.70;99.90;;;;;;5036351;28;20141;-85
2022/11/04 08:03:59;;;;;;;4.70;2.00;;;10.80;99.90;;;;;;5034415;28;20561;-86
2022/11/04 08:06:25;;;;;;;4.65;2.10;;;11.00;99.90;;;;;;5055497;28;20076;-87
2022/11/04 08:08:52;;;;;;;7.50;1.92;;;12.50;99.90;;;;;;5032339;28;20052;-85
2022/11/04 08:11:23;;;;;;;3.65;1.60;;;15.70;99.90;;;;;;5025251;28;20041;-87
2022/11/04 08:13:49;;;;;;;4.00;1.83;;;;;;;;;;5055084;28;20044;-88
2022/11/04 08:16:17;;;;;;;4.82;1.77;;;;;;;;;;5043380;28;20537;-76
2022/11/04 08:18:43;;;;;;;3.45;1.70;;;16.50;99.90;;;;;;5033505;28;20046;-84
2022/11/04 08:21:10;;;;;;;4.70;1.70;;;20.20;99.90;;;;;;5033326;28;20045;-84
2022/11/04 08:23:36;;;;;;;4.15;1.70;;;;;;;;;;5015168;28;20054;-83
2022/11/04 08:26:06;;;;;;;3.58;1.75;;;;;;;;;;5019965;28;20120;-85
2022/11/04 08:28:33;;;;;;;3.67;1.70;;;;;;;;;;5043060;28;20128;-83
2022/11/04 08:31:01;;;;;;;6.07;2.08;;;;;;;;;;5016308;28;20622;-84
2022/11/04 08:33:28;;;;;;;3.00;1.60;;;;;;;;;;5028070;28;20042;-84
2022/11/04 08:35:55;;;;;;;4.40;1.60;;;;;;;;;;5000761;28;20236;-83
2022/11/04 08:38:21;;;;;;;4.25;1.52;;;;;;;;;;5009727;28;20045;-85
2022/11/04 08:40:47;;;;;;;3.92;1.55;;;;;;;;;;5019520;28;20045;-85
2022/11/04 08:43:13;;;;;;;5.28;1.50;;;;;;;;;;5035283;28;20079;-86
2022/11/04 08:45:44;;;;;;;4.45;1.33;;;;;;;;;;5023805;28;20148;-84
2022/11/04 08:48:10;;;;;;;5.22;1.40;;;;;;;;;;5023910;28;20128;-83
2022/11/04 08:50:36;;;;;;;4.45;1.40;;;;;;;;;;5020722;28;20044;-85
2022/11/04 08:53:03;;;;;;;3.25;1.40;;;21.40;99.90;;;;;;5019385;28;20452;-83
2022/11/04 08:55:30;;;;;;;4.05;1.30;;;30.80;92.00;;;;;;5015524;28;20072;-83
2022/11/04 08:57:56;;;;;;;3.92;1.20;;;31.80;90.40;;;;;;5052951;28;20091;-84
2022/11/04 09:00:22;;;;;;;3.20;1.27;;;32.50;86.70;;;;;;5030282;28;20052;-82
2022/11/04 09:02:48;;;;;;;4.15;1.20;;;32.90;84.50;;;;;;4999804;28;20040;-84
2022/11/04 09:05:14;;;;;;;5.07;1.33;;;33.50;83.10;;;;;;5015463;28;20049;-82
2022/11/04 09:07:41;;;;;;;6.20;1.50;;;33.70;79.60;;;;;;4999833;28;20498;-82
2022/11/04 09:10:08;;;;;;;3.72;1.33;;;33.80;78.00;;;;;;5016084;28;20081;-82
2022/11/04 09:12:34;;;;;;;4.07;1.52;;;34.10;77.30;;;;;;5021625;28;20045;-81
2022/11/04 09:15:00;;;;;;;3.08;1.20;;;34.00;75.60;;;;;;5053610;28;20041;-81
2022/11/04 09:17:26;;;;;;;4.45;1.38;;;34.10;75.40;;;;;;5018345;28;20041;-81
2022/11/04 09:19:52;;;;;;;3.92;1.10;;;34.10;74.90;;;;;;5018191;28;20504;-81
2022/11/04 09:22:18;;;;;;;4.32;1.20;;;;;;;;;;5053930;28;20041;-82
2022/11/04 09:24:44;;;;;;;3.75;1.23;;;;;;;;;;5027887;28;20091;-82
2022/11/04 09:27:10;;;;;;;3.78;1.10;;;;;;;;;;5019789;28;20129;-82
2022/11/04 09:29:36;;;;;;;3.33;0.88;;;;;;;;;;5039155;28;20081;-82
2022/11/04 09:32:03;;;;;;;5.30;1.30;;;;;;;;;;5010065;28;20124;-82
2022/11/04 09:34:29;;;;;;;5.63;1.45;;;;;;;;;;5017890;28;20090;-82
2022/11/04 09:36:56;;;;;;;7.72;1.50;;;;;;;;;;5025340;28;20099;-83
2022/11/04 09:39:24;;;;;;;7.18;1.80;;;33.60;73.90;;;;;;5053274;28;20048;-82
2022/11/04 09:42:05;;;;;;;5.05;1.30;;;24.10;86.80;;;;;;5050601;28;20036;-80
2022/11/04 09:44:57;;;;;;;7.82;1.60;;;23.50;88.80;;;;;;5033827;28;20053;-80
2022/11/04 09:47:24;;;;;;;3.97;1.30;;;22.90;89.60;;;;;;5049316;28;20394;-80
2022/11/04 09:49:53;;;;;;;6.03;1.40;;;22.40;90.70;;;;;;5028862;28;20202;-80
2022/11/04 09:52:36;;;;;;;5.60;1.30;;;22.00;91.20;;;;;;5032768;28;20049;-80
2022/11/04 09:55:09;;;;;;;5.72;1.50;;;21.60;92.10;;;;;;5031907;28;20064;-80
2022/11/04 09:57:34;;;;;;;5.07;1.55;;;21.20;92.90;;;;;;5031701;28;20049;-81
2022/11/04 10:00:00;;;;;;;4.63;1.48;;;20.90;93.90;;;;;;5050253;28;20060;-77
2022/11/04 10:02:48;;;;;;;4.32;1.45;;;20.60;94.70;;;;;;5051709;28;20405;-83
2022/11/04 10:05:22;;;;;;;6.57;1.55;;;20.10;96.00;;;;;;5029985;28;20401;-83
2022/11/04 10:08:00;;;;;;;4.87;1.43;;;20.10;97.30;;;;;;5048184;28;20389;-84
2022/11/04 10:10:53;;;;;;;7.50;1.58;;;20.10;97.40;;;;;;5074281;28;20075;-84
2022/11/04 10:13:43;;;;;;;3.97;1.40;;;20.10;97.50;;;;;;5072819;28;20128;-84
2022/11/04 10:16:27;;;;;;;4.93;1.70;;;20.20;98.20;;;;;;5037650;28;20517;-84
2022/11/04 10:19:19;;;;;;;3.47;1.20;;;20.40;97.90;;;;;;5036976;28;20436;-84
2022/11/04 10:21:59;;;;;;;5.65;1.40;;;20.80;97.10;;;;;;5053629;28;20135;-83
2022/11/04 10:24:36;;;;;;;6.07;1.42;;;21.10;97.10;;;;;;5074953;28;20041;-83
2022/11/04 10:27:08;;;;;;;4.07;1.30;;;21.60;96.80;;;;;;5041869;28;20477;-84
2022/11/04 10:30:03;;;;;;;3.58;1.50;;;;;;;;;;5075940;28;20050;-83
2022/11/04 10:32:32;;;;;;;7.60;1.50;;;;;;;;;;5059024;28;20059;-84
2022/11/04 10:35:05;;;;;;;5.07;1.17;;;;;;;;;;5075716;28;20374;-83
2022/11/04 10:37:31;;;;;;;5.65;1.52;;;;;;;;;;5022701;28;20137;-83
2022/11/04 10:40:16;;;;;;;5.43;1.27;;;;;;;;;;5037319;28;20068;-83
2022/11/04 10:42:43;;;;;;;6.60;1.42;;;;;;;;;;5044897;28;20132;-83
2022/11/04 10:45:13;;;;;;;6.97;1.58;;;;;;;;;;5075544;28;20425;-83
2022/11/04 10:47:39;;;;;;;8.30;1.60;;;;;;;;;;5027195;28;20128;-83
2022/11/04 10:50:11;;;;;;;4.68;1.40;;;;;;;;;;5021294;28;20080;-84
2022/11/04 10:52:37;;;;;;;5.32;1.30;;;;;;;;;;5037300;28;20052;-83
2022/11/04 10:55:12;;;;;;;4.53;1.40;;;;;;;;;;5040381;28;20067;-84
2022/11/04 10:57:38;;;;;;;3.53;1.33;;;;;;;;;;5040986;28;20051;-84
2022/11/04 11:00:05;;;;;;;8.30;1.40;;;;;;;;;;5043553;28;20106;-85
2022/11/04 11:02:37;;;;;;;5.40;1.75;;;;;;;;;;5007545;28;20045;-84
2022/11/04 11:05:18;;;;;;;5.85;1.50;;;;;;;;;;5038183;28;20183;-84
2022/11/04 11:07:45;;;;;;;6.07;1.60;;;;;;;;;;5001803;28;20442;-84
2022/11/04 11:10:17;;;;;;;4.05;1.30;;;;;;;;;;5035969;28;20037;-84
2022/11/04 11:12:50;;;;;;;5.07;1.60;;;;;;;;;;5037297;28;20091;-83
2022/11/04 11:15:31;;;;;;;7.10;1.73;;;;;;;;;;5008424;28;20252;-84
2022/11/04 11:18:19;;;;;;;5.18;1.55;;;;;;;;;;5002017;28;20439;-84
2022/11/04 11:20:50;;;;;;;4.47;1.50;;;;;;;;;;5018109;28;20041;-84
2022/11/04 11:23:33;;;;;;;7.63;1.55;;;;;;;;;;5017493;28;20057;-84
2022/11/04 11:26:00;;;;;;;7.18;1.50;;;;;;;;;;5017479;28;20537;-83
2022/11/04 11:28:26;;;;;;;5.00;1.27;;;;;;;;;;5034566;28;20061;-83
2022/11/04 11:31:07;;;;;;;5.18;1.48;;;;;;;;;;5021663;28;20056;-84
2022/11/04 11:33:40;;;;;;;4.70;1.55;;;;;;;;;;5026443;28;20045;-83
2022/11/04 11:36:11;;;;;;;5.00;1.60;;;22.00;96.00;;;;;;5036117;28;20108;-83
2022/11/04 11:38:57;;;;;;;3.20;1.50;;;21.90;91.30;;;;;;5017377;28;20084;-83
2022/11/04 11:41:30;;;;;;;5.85;1.60;;;21.00;92.40;;;;;;5034770;28;20464;-83
2022/11/04 11:44:03;;;;;;;5.97;1.80;;;19.90;93.70;;;;;;5033913;28;20045;-82
2022/11/04 11:46:32;;;;;;;4.30;1.50;;;19.50;94.40;;;;;;5036793;28;20041;-83
2022/11/04 11:49:00;;;;;;;6.65;1.70;;;18.70;95.30;;;;;;5036407;28;20045;-83
2022/11/04 11:51:33;;;;;;;6.55;1.67;;;18.00;96.90;;;;;;5051261;28;20112;-80
2022/11/04 11:54:15;;;;;;;6.75;1.60;;;17.90;99.90;;;;;;5047547;28;20066;-84
2022/11/04 11:56:44;;;;;;;4.88;1.50;;;16.90;99.90;;;;;;5003940;28;20464;-81
2022/11/04 11:59:25;;;;;;;6.95;1.90;;;16.40;99.90;;;;;;5043967;28;20521;-81
2022/11/04 12:02:25;;;;;;;4.93;1.50;;;15.90;99.90;;;;;;5070895;28;20079;-81
2022/11/04 12:04:53;;;;;;;4.35;1.73;;;15.70;99.90;;;;;;5032552;28;20080;-81
2022/11/04 12:07:40;;;;;;;4.32;1.60;;;15.70;99.90;;;;;;5031822;28;20124;-80
2022/11/04 12:10:17;;;;;;;6.90;1.70;;;15.50;99.90;;;;;;5049857;28;20088;-80
2022/11/04 12:13:01;;;;;;;4.53;1.55;;;15.30;99.90;;;;;;5051149;28;20045;-81
2022/11/04 12:15:54;;;;;;;4.65;1.50;;;15.40;99.90;;;;;;5053913;28;20060;-81
2022/11/04 12:18:39;;;;;;;5.88;1.60;;;15.30;99.90;;;;;;5015990;28;20052;-81
2022/11/04 12:21:32;;;;;;;3.95;1.63;;;15.40;99.90;;;;;;5059742;28;20055;-80
2022/11/04 12:24:16;;;;;;;5.55;1.77;;;15.20;99.90;;;;;;5070211;28;20042;-80
2022/11/04 12:26:58;;;;;;;5.82;1.70;;;15.00;99.90;;;;;;5032127;28;20049;-80
2022/11/04 12:29:36;;;;;;;3.25;1.40;;;15.00;99.90;;;;;;5051802;28;20052;-81
2022/11/04 12:32:18;;;;;;;5.80;1.50;;;15.30;99.90;;;;;;5057535;28;20036;-80
2022/11/04 12:34:58;;;;;;;6.43;1.90;;;14.90;99.90;;;;;;5058817;28;20036;-80
2022/11/04 12:38:05;;;;;;;4.40;1.70;;;14.90;99.90;;;;;;5025803;28;20045;-81
2022/11/04 12:40:34;;;;;;;;;;;15.00;99.90;;;;;;5022761;28;20206;-83
2022/11/04 12:43:11;;;;;;;5.00;1.75;;;15.00;99.90;;;;;;5044176;28;19963;-84
2022/11/04 12:46:04;;;;;;;4.88;1.60;;;15.10;99.90;;;;;;5020770;28;20041;-85
2022/11/04 12:48:51;;;;;;;5.22;1.58;;;15.10;99.90;;;;;;5053302;28;20056;-84
2022/11/04 12:51:47;;;;;;;8.23;1.80;;;15.40;99.90;;;;;;5034256;28;20513;-85
2022/11/04 12:54:38;;;;;;;8.15;2.17;;;16.50;99.90;;;;;;5034094;28;20045;-84
2022/11/04 12:57:07;;;;;;;6.65;1.73;;;17.60;99.90;;;;;;5038688;28;20041;-85
2022/11/04 13:00:12;;;;;;;4.90;1.67;;;19.00;99.90;;;;;;5034587;28;20060;-84
2022/11/04 13:02:39;;;;;;;6.80;1.80;;;19.30;99.90;;;;;;5041682;28;20099;-85
2022/11/04 13:05:32;;;;;;;4.57;1.55;;;19.10;99.90;;;;;;5018824;28;20505;-84
2022/11/04 13:08:03;;;;;;;5.57;1.60;;;19.10;99.90;;;;;;5018885;28;20080;-84
2022/11/04 13:10:53;;;;;;;4.53;1.50;;;18.90;99.90;;;;;;5035075;28;20112;-84
2022/11/04 13:13:26;;;;;;;8.45;2.05;;;19.80;99.90;;;;;;5035025;28;20473;-84
2022/11/04 13:16:00;;;;;;;7.75;1.60;;;18.80;99.90;;;;;;5052819;28;20045;-85
2022/11/04 13:18:31;;;;;;;6.40;1.55;;;18.90;99.90;;;;;;5033738;28;20048;-84
2022/11/04 13:21:00;;;;;;;5.93;1.75;;;18.90;99.90;;;;;;5017624;28;20091;-84
2022/11/04 13:23:35;;;;;;;5.15;1.52;;;18.90;99.90;;;;;;5034638;28;20049;-84
2022/11/04 13:26:04;;;;;;;5.60;1.73;;;18.70;99.90;;;;;;5018280;28;20049;-85
2022/11/04 13:28:30;;;;;;;6.65;1.85;;;18.60;99.90;;;;;;5018193;28;20409;-84
2022/11/04 13:31:05;;;;;;;6.43;1.70;;;18.50;99.90;;;;;;5034343;28;20052;-85
2022/11/04 13:33:49;;;;;;;11.70;2.08;;;18.30;99.90;;;;;;5034694;28;20107;-85
2022/11/04 13:36:18;;;;;;;6.70;1.70;;;18.20;99.90;;;;;;5035331;28;20049;-84
2022/11/04 13:38:49;;;;;;;7.53;2.20;;;18.20;99.90;;;;;;5018273;28;20048;-85
2022/11/04 13:41:25;;;;;;;9.30;1.90;;;18.20;99.90;;;;;;5035204;28;20517;-85
2022/11/04 13:43:55;;;;;;;7.68;1.67;;;18.00;99.90;;;;;;5053080;28;20055;-85
2022/11/04 13:46:29;;;;;;;7.82;2.17;;;18.00;99.90;;;;;;5019852;28;20060;-84
2022/11/04 13:49:14;;;;;;;7.55;1.98;;;18.00;99.90;;;;;;5035190;28;20505;-85
2022/11/04 13:51:59;;;;;;;8.52;2.00;;;17.90;99.90;;;;;;5034391;28;20049;-85
2022/11/04 13:54:40;;;;;;;9.50;2.10;;;17.80;99.90;;;;;;5034436;28;20094;-84